Close sub menu
NASDAQ
NY-Nasdaq Composite 25114,443 +222,13 +0,89% (23:16)
Stijgers 1 dag
Dalers 1 dag
Indices 1 dag
Atlassian Corp +29,5%
Illumina +7,1%
Zscaler +7,0%
Zoom Communications Inc +6,5%
Datadog +6,3%
Intel Corp +5,4%
Micron Technology Inc +4,8%
Charter Communications +4,0%
Workday +3,7%
Cadence Design Systems +3,4%
Apple +3,3%
MercadoLibre +3,2%
Rivian Automotive -8,4%
Amgen -4,8%
Old Dominion Freight Line -3,1%
lululemon athletica -3,0%
Cintas Corp -2,9%
O'Reilly Automotive Inc -2,8%
Dollar Tree -2,5%
PACCAR -2,3%
Verisk Analytics -1,9%
Marriott International -1,8%
Constellation Energy Corp -1,7%
Netflix Inc. -1,7%
AEX* 1.011,92-0,2%
Midkap* 1.041,54+1,4%
AMS Next 20®* 1.669,74+0,9%
FTSE100 10.363,93--
Dow Jones 49.499,27-0,3%
NASDAQ 25.114,443+0,9%
S&P500 7.230,12+0,3%
S&P Future 7.263,75+0,1%
BEL20** 5.352,67+1,4%
CAC 40** 8.114,84+0,5%
DAX 24.296,470,0%
* real time    ** slotkoers
AandelenKoersVorige+/-+/- %HoogLaagVolumeTijd
Adobe 250,71 246,10 +4,61 +1,9% -- -- 16.385 22:00
Advanced Micro Devices 360,55 354,49 +6,06 +1,7% -- -- 255.347 22:00
Airbnb 141,68 140,36 +1,32 +0,9% -- -- 383 22:00
Align Technology 178,93 176,01 +2,92 +1,7% -- -- 165 22:00
Alphabet 383,31 381,94 +1,37 +0,4% -- -- 98.414 22:00
Alphabet 385,69 384,80 +0,89 +0,2% -- -- 140.645 22:00
Amazon.com 268,45 265,06 +3,39 +1,3% -- -- 131.294 22:00
American Electric Power Company 136,93 137,11 -0,18 -0,1% -- -- 562 22:00
Amgen 329,70 346,25 -16,55 -4,8% -- -- 1.740 22:00
Analog Devices 397,69 402,26 -4,57 -1,1% -- -- 6.403 22:00
Ansys 374,30 374,30 -- -- -- -- 0 22:00
Apple 280,25 271,35 +8,90 +3,3% -- -- 92.669 22:00
Applied Materials 389,10 394,49 -5,39 -1,4% -- -- 7.711 22:00
ASML Holding NV 1.428,18 1.438,99 -10,81 -0,8% -- -- 23.932 22:00
AstraZeneca PLC 194,94 194,94 0,00 0,0% 195,79 189,39 294.174 00:00
Atlassian Corp 88,85 68,59 +20,26 +29,5% -- -- 25.964 22:00
Autodesk 244,35 237,00 +7,35 +3,1% -- -- 262 22:00
Automatic Data Processing 214,21 211,94 +2,27 +1,1% -- -- 189 22:00
Baker Hughes Company 69,11 69,67 -0,57 -0,8% -- -- 1.970 22:00
Biogen 187,05 189,28 -2,23 -1,2% -- -- 94 22:00
Booking Holdings Inc. 169,63 168,36 +1,27 +0,8% -- -- 2.619 22:00
Broadcom Inc. 421,24 417,43 +3,81 +0,9% -- -- 39.824 22:00
Cadence Design Systems 340,94 329,59 +11,35 +3,4% -- -- 2.109 22:00
Charter Communications 171,74 165,17 +6,57 +4,0% -- -- 3.044 22:00
Cintas Corp 169,61 174,71 -5,10 -2,9% -- -- 326 22:00
Cisco Systems 91,87 91,50 +0,37 +0,4% -- -- 14.509 22:00
Cognizant Technology Solutions Corp 52,43 52,90 -0,47 -0,9% -- -- 1.140 22:00
Comcast Corp 27,17 27,04 +0,13 +0,5% -- -- 5.571 22:00
Constellation Energy Corp 307,81 313,00 -5,19 -1,7% -- -- 5.898 22:00
Copart 33,27 33,11 +0,16 +0,5% -- -- 652 22:00
CoStar Group 34,72 34,61 +0,11 +0,3% -- -- 105 22:00
Costco Wholesale Corp 1.011,70 1.014,53 -2,83 -0,3% -- -- 783 22:00
CrowdStrike Holdings 455,64 445,75 +9,89 +2,2% -- -- 5.157 22:00
CSX Corp 45,10 45,43 -0,34 -0,7% -- -- 909 22:00
Datadog 140,53 132,19 +8,34 +6,3% -- -- 7.870 22:00
DexCom 61,34 59,55 +1,79 +3,0% -- -- 380 22:00
Diamondback Energy 207,77 205,63 +2,14 +1,0% -- -- 607 22:00
Dollar Tree 94,68 97,11 -2,43 -2,5% -- -- 22 22:00
eBay 104,04 103,48 +0,56 +0,5% -- -- 128.591 22:00
Electronic Arts 202,06 202,37 -0,31 -0,2% -- -- 46 22:00
Enphase Energy 33,85 32,96 +0,89 +2,7% -- -- 2.823 22:00
Exelon Corp 46,50 45,99 +0,51 +1,1% -- -- 702 22:00
Fastenal Co 44,91 44,93 -0,02 0,0% -- -- 649 22:00
Fortinet 86,29 84,31 +1,98 +2,3% -- -- 4.688 22:00
Gilead Sciences 131,64 130,84 +0,80 +0,6% -- -- 1.675 22:00
GlobalFoundries 64,91 64,60 +0,31 +0,5% -- -- 10.635 22:00
Honeywell International 212,50 214,33 -1,83 -0,9% -- -- 1.590 22:00
IDEXX Laboratories 567,82 560,80 +7,02 +1,3% -- -- 42 22:00
Illumina 135,77 126,74 +9,03 +7,1% -- -- 594 22:00
Intel Corp 99,61 94,48 +5,13 +5,4% -- -- 1.491.572 22:00
Intuit 399,03 388,50 +10,53 +2,7% -- -- 2.222 22:00
Intuitive Surgical 457,79 457,61 +0,18 0,0% -- -- 1.922 22:00
JD.com 29,96 30,32 -0,36 -1,2% -- -- 44.038 22:00
Keurig Dr Pepper 29,10 29,40 -0,31 -1,0% -- -- 1.293 22:00
KLA Corp 1.725,59 1.750,35 -24,76 -1,4% -- -- 739 22:00
Kraft Heinz Company (The) 22,48 22,66 -0,18 -0,8% -- -- 9.964 22:00
Lam Research Corp 256,64 257,86 -1,22 -0,5% -- -- 45.624 22:00
Lucid Group Inc 6,56 6,37 +0,19 +2,9% -- -- 41.366 22:00
lululemon athletica 133,58 137,70 -4,12 -3,0% -- -- 10.781 22:00
Marriott International 355,04 361,69 -6,65 -1,8% -- -- 1.391 22:00
Marvell Technology 164,92 165,15 -0,23 -0,1% -- -- 99.925 22:00
MercadoLibre 1.850,05 1.792,63 +57,42 +3,2% -- -- 108 22:00
Meta Platforms 608,75 611,91 -3,17 -0,5% -- -- 72.006 22:00
Microchip Technology 93,95 92,91 +1,04 +1,1% -- -- 7.056 22:00
Micron Technology Inc 542,21 517,16 +25,05 +4,8% -- -- 442.312 22:00
Microsoft Corp 414,20 407,78 +6,42 +1,6% -- -- 121.003 22:00
Moderna 45,35 45,94 -0,59 -1,3% -- -- 26.508 22:00
Mondelez International 61,38 61,44 -0,06 -0,1% -- -- 1.232 22:00
Monster Beverage Corp 77,12 77,07 +0,05 +0,1% -- -- 1.098 22:00
Netflix Inc. 92,06 93,61 -1,55 -1,7% -- -- 72.259 22:00
NVIDIA Corp 198,35 199,57 -1,22 -0,6% -- -- 694.081 22:00
NXP Semiconductors NV 295,24 293,59 +1,65 +0,6% -- -- 3.681 22:00
Old Dominion Freight Line 205,81 212,43 -6,62 -3,1% 215,22 205,37 2.186.851 22:00
O'Reilly Automotive Inc 96,65 99,40 -2,75 -2,8% -- -- 470 22:00
PACCAR 116,04 118,80 -2,76 -2,3% -- -- 61 22:00
Palo Alto Networks Inc 181,09 179,32 +1,77 +1,0% -- -- 7.821 22:00
Paychex 93,02 92,63 +0,39 +0,4% -- -- 21 22:00
PayPal Holdings 50,43 50,14 +0,29 +0,6% -- -- 27.060 22:00
PDD Holdings 99,73 99,88 -0,15 -0,2% -- -- 53.383 22:00
Pepsico 157,41 158,49 -1,08 -0,7% -- -- 3.655 22:00
QUALCOMM 177,04 179,58 -2,55 -1,4% -- -- 60.556 22:00
Regeneron Pharmaceuticals 701,42 707,06 -5,64 -0,8% -- -- 15 22:00
Rivian Automotive 15,02 16,40 -1,38 -8,4% -- -- 52.835 22:00
Ross Stores 228,84 227,79 +1,05 +0,5% -- -- 2.663 22:00
Seagen 228,89 228,74 -- -- -- -- 0 22:00
SiriusXM Holdings Inc 27,22 26,94 +0,28 +1,0% -- -- 1.963 22:00
Starbucks Corp 105,91 105,33 +0,58 +0,6% -- -- 2.330 22:00
Synopsys 488,84 482,60 +6,24 +1,3% -- -- 1.973 22:00
Tesla 390,75 381,63 +9,12 +2,4% -- -- 274.209 22:00
Texas Instruments 280,95 281,08 -0,13 0,0% -- -- 10.945 22:00
T-Mobile US 196,06 195,50 +0,56 +0,3% -- -- 1.059 22:00
Verisk Analytics 180,95 184,49 -3,54 -1,9% -- -- 95 22:00
Vertex Pharmaceuticals 424,02 427,38 -3,36 -0,8% -- -- 1.092 22:00
Walgreens Boots Alliance 11,98 11,98 -- -- -- -- 0 22:00
Warner Bros Discovery 26,97 27,05 -0,08 -0,3% -- -- 2.792 22:00
Workday 126,96 122,40 +4,56 +3,7% -- -- 522 22:00
Xcel Energy 82,56 82,95 -0,39 -0,5% -- -- 1.547 22:00
Zoom Communications Inc 103,45 97,15 +6,30 +6,5% -- -- 11.218 22:00
Zscaler 139,78 130,68 +9,10 +7,0% -- -- 4.006 22:00
Powered by

Schakel browser notificaties in

Schakel browser notificaties in om meldingen te ontvangen op dit apparaat.

Browser notificaties inschakelen

U heeft browser notificaties voor fd.nl eerder geweigerd. Ga naar browser instellingen en sta browser notificaties toe voor fd.nl. De precieze handelingen zijn afhankelijk van uw browser.

U volgt een onderwerp

Wanneer deze zoekterm in een artikel voorkomt, zult u deze terugvinden in Mijn nieuws onder ‘Eurobonds’.

Wilt u via de FD App meldingen ontvangen voor dit onderwerp?

Wilt u via de FD App meldingen ontvangen voor dit onderwerp?

Ons privacy statement is van toepassing.

Meldingen

Wanneer deze zoekterm in een artikel voorkomt, zult u deze terugvinden in Mijn nieuws onder ‘Eurobonds’.

Wilt u via de FD App meldingen ontvangen voor dit onderwerp?

Wilt u via de FD App meldingen ontvangen voor dit onderwerp?